createdAt,value
2019-03-03T00:00:52.283Z,20.48
2019-03-03T00:03:18.714Z,19.15
2019-03-03T00:05:44.851Z,18.60
2019-03-03T00:08:11.101Z,17.75
2019-03-03T00:10:37.230Z,18.37
2019-03-03T00:13:03.621Z,20.10
2019-03-03T00:15:29.775Z,19.00
2019-03-03T00:17:58.433Z,17.80
2019-03-03T00:20:26.449Z,17.02
2019-03-03T00:22:52.917Z,16.07
2019-03-03T00:25:20.247Z,16.52
2019-03-03T00:27:47.438Z,17.40
2019-03-03T00:30:16.204Z,17.80
2019-03-03T00:32:42.764Z,14.45
2019-03-03T00:35:09.850Z,16.80
2019-03-03T00:37:47.791Z,16.67
2019-03-03T00:40:21.867Z,16.23
2019-03-03T00:42:49.893Z,17.27
2019-03-03T00:45:18.561Z,15.60
2019-03-03T00:48:03.907Z,14.73
2019-03-03T00:50:32.038Z,15.40
2019-03-03T00:53:10.454Z,15.05
2019-03-03T00:55:41.696Z,14.13
2019-03-03T00:58:09.769Z,13.60
2019-03-03T01:00:41.117Z,13.78
2019-03-03T01:03:09.188Z,13.22
2019-03-03T01:05:37.217Z,12.30
2019-03-03T01:08:11.248Z,13.53
2019-03-03T01:10:39.225Z,11.30
2019-03-03T01:13:23.981Z,11.93
2019-03-03T01:15:52.619Z,10.78
2019-03-03T01:18:26.929Z,11.18
2019-03-03T01:20:56.912Z,11.28
2019-03-03T01:23:27.942Z,10.00
2019-03-03T01:28:20.835Z,10.72
2019-03-03T01:30:47.003Z,10.82
2019-03-03T01:33:13.894Z,10.40
2019-03-03T01:35:40.022Z,9.75
2019-03-03T01:38:06.817Z,11.05
2019-03-03T01:40:33.952Z,9.13
2019-03-03T01:43:01.263Z,10.28
2019-03-03T01:45:27.405Z,9.75
2019-03-03T01:47:53.932Z,9.38
2019-03-03T01:50:20.094Z,9.78
2019-03-03T01:52:46.213Z,9.63
2019-03-03T01:55:12.827Z,9.45
2019-03-03T01:57:39.138Z,8.90
2019-03-03T02:00:20.302Z,8.75
2019-03-03T02:05:12.607Z,8.98
2019-03-03T02:07:38.785Z,8.23
2019-03-03T02:10:07.966Z,7.87
2019-03-03T02:12:34.190Z,8.50
2019-03-03T02:15:01.006Z,8.58
2019-03-03T02:17:27.662Z,8.90
2019-03-03T02:19:54.025Z,8.65
2019-03-03T02:22:20.193Z,8.20
2019-03-03T02:24:46.371Z,7.45
2019-03-03T02:27:12.750Z,8.03
2019-03-03T02:29:38.869Z,8.65
2019-03-03T02:32:07.026Z,8.28
2019-03-03T02:34:33.241Z,8.33
2019-03-03T02:36:59.376Z,8.38
2019-03-03T02:39:25.502Z,7.22
2019-03-03T02:41:51.630Z,7.97
2019-03-03T02:44:17.966Z,7.37
2019-03-03T02:46:44.137Z,6.85
2019-03-03T02:49:10.307Z,7.05
2019-03-03T02:51:36.704Z,6.97
2019-03-03T02:54:04.766Z,6.85
2019-03-03T02:56:33.629Z,6.28
2019-03-03T02:58:59.928Z,6.17
2019-03-03T03:01:29.118Z,6.78
2019-03-03T03:03:55.184Z,6.87
2019-03-03T03:06:23.387Z,6.80
2019-03-03T03:09:10.451Z,5.95
2019-03-03T03:11:43.544Z,6.37
2019-03-03T03:14:20.885Z,6.78
2019-03-03T03:16:49.406Z,6.30
2019-03-03T03:19:29.700Z,6.33
2019-03-03T03:21:57.797Z,4.95
2019-03-03T03:24:30.413Z,6.95
2019-03-03T03:26:58.641Z,6.33
2019-03-03T03:29:32.554Z,6.47
2019-03-03T03:32:09.512Z,6.58
2019-03-03T03:34:55.744Z,5.47
2019-03-03T03:37:26.783Z,6.17
2019-03-03T03:42:38.259Z,5.87
2019-03-03T03:45:10.445Z,5.50
2019-03-03T03:47:41.199Z,6.30
2019-03-03T03:50:15.231Z,6.42
2019-03-03T03:52:49.464Z,6.33
2019-03-03T03:55:30.078Z,5.95
2019-03-03T03:58:16.895Z,5.53
2019-03-03T04:01:01.591Z,5.03
2019-03-03T04:03:47.036Z,5.33
2019-03-03T04:06:18.834Z,5.75
2019-03-03T04:08:52.795Z,5.53
2019-03-03T04:11:23.671Z,5.00
2019-03-03T04:14:03.827Z,5.62
2019-03-03T04:16:38.280Z,4.20
2019-03-03T04:19:23.115Z,5.08
2019-03-03T04:21:51.242Z,5.40
2019-03-03T04:24:28.066Z,5.70
2019-03-03T04:26:56.947Z,4.97
2019-03-03T04:32:16.439Z,5.53
2019-03-03T04:35:03.706Z,5.42
2019-03-03T04:37:49.685Z,5.22
2019-03-03T04:40:34.244Z,5.40
2019-03-03T04:43:02.822Z,5.10
2019-03-03T04:45:36.926Z,5.62
2019-03-03T04:48:08.050Z,4.45
2019-03-03T04:50:44.727Z,4.85
2019-03-03T04:53:28.269Z,5.05
2019-03-03T04:56:02.297Z,5.25
2019-03-03T04:58:42.578Z,5.45
2019-03-03T05:01:13.722Z,5.83
2019-03-03T05:06:15.483Z,5.17
2019-03-03T05:08:52.707Z,5.25
2019-03-03T05:11:39.805Z,5.28
2019-03-03T05:14:08.372Z,5.00
2019-03-03T05:16:40.267Z,6.10
2019-03-03T05:19:07.892Z,5.20
2019-03-03T05:21:34.095Z,5.92
2019-03-03T05:24:00.187Z,5.50
2019-03-03T05:26:26.382Z,6.15
2019-03-03T05:28:52.514Z,6.33
2019-03-03T05:31:18.801Z,6.65
2019-03-03T05:33:44.948Z,6.53
2019-03-03T05:36:11.185Z,6.72
2019-03-03T05:38:37.365Z,6.67
2019-03-03T05:41:03.472Z,7.40
2019-03-03T05:43:30.972Z,7.65
2019-03-03T05:45:57.602Z,7.17
2019-03-03T05:48:23.784Z,6.92
2019-03-03T05:50:49.926Z,7.42
2019-03-03T05:53:16.133Z,6.53
2019-03-03T05:55:42.726Z,6.45
2019-03-03T05:58:08.958Z,7.12
2019-03-03T06:00:35.167Z,6.95
2019-03-03T06:03:02.101Z,6.53
2019-03-03T06:05:28.373Z,6.35
2019-03-03T06:07:55.811Z,6.10
2019-03-03T06:10:21.885Z,6.42
2019-03-03T06:12:48.063Z,6.60
2019-03-03T06:15:14.230Z,6.50
2019-03-03T06:17:41.280Z,6.12
2019-03-03T06:20:09.617Z,5.75
2019-03-03T06:22:36.001Z,5.97
2019-03-03T06:25:04.046Z,5.85
2019-03-03T06:27:30.213Z,5.92
2019-03-03T06:29:56.336Z,6.72
2019-03-03T06:32:24.649Z,5.33
2019-03-03T06:34:50.768Z,5.53
2019-03-03T06:37:17.746Z,4.95
2019-03-03T06:39:45.006Z,4.95
2019-03-03T06:42:11.382Z,4.80
2019-03-03T06:44:37.979Z,4.35
2019-03-03T06:47:04.134Z,4.33
2019-03-03T06:49:30.262Z,5.10
2019-03-03T06:51:57.766Z,4.17
2019-03-03T06:54:23.991Z,4.30
2019-03-03T06:56:50.144Z,4.35
2019-03-03T06:59:16.982Z,5.00
2019-03-03T07:01:43.116Z,4.80
2019-03-03T07:04:09.235Z,4.00
2019-03-03T07:06:35.365Z,4.85
2019-03-03T07:09:03.989Z,4.55
2019-03-03T07:11:33.562Z,3.33
2019-03-03T07:14:00.703Z,4.20
2019-03-03T07:16:26.789Z,3.92
2019-03-03T07:18:53.925Z,4.42
2019-03-03T07:21:20.191Z,3.77
2019-03-03T07:23:46.885Z,3.58
2019-03-03T07:26:13.008Z,3.95
2019-03-03T07:28:40.181Z,3.62
2019-03-03T07:31:06.273Z,3.80
2019-03-03T07:33:32.452Z,4.37
2019-03-03T07:35:58.579Z,3.72
2019-03-03T07:38:24.960Z,3.80
2019-03-03T07:40:51.190Z,3.62
2019-03-03T07:43:17.366Z,3.85
2019-03-03T07:45:43.514Z,3.45
2019-03-03T07:48:10.852Z,3.60
2019-03-03T07:50:37.248Z,3.05
2019-03-03T07:53:03.647Z,3.70
2019-03-03T07:55:29.725Z,3.55
2019-03-03T07:57:57.136Z,3.20
2019-03-03T08:00:23.703Z,3.67
2019-03-03T08:03:14.365Z,3.92
2019-03-03T08:05:42.035Z,2.25
2019-03-03T08:08:09.645Z,3.47
2019-03-03T08:10:36.249Z,3.90
2019-03-03T08:13:09.138Z,3.98
2019-03-03T08:15:31.338Z,3.83
2019-03-03T08:17:57.529Z,3.62
2019-03-03T08:20:23.660Z,5.87
2019-03-03T08:22:49.786Z,6.47
2019-03-03T08:25:16.181Z,4.22
2019-03-03T08:27:43.325Z,3.90
2019-03-03T08:30:11.271Z,3.77
2019-03-03T08:32:37.903Z,3.60
2019-03-03T08:35:18.927Z,2.65
2019-03-03T08:37:46.565Z,3.17
2019-03-03T08:40:12.940Z,3.20
2019-03-03T08:42:58.246Z,2.95
2019-03-03T08:45:26.426Z,2.55
2019-03-03T08:47:57.292Z,2.77
2019-03-03T08:50:28.602Z,2.65
2019-03-03T08:52:56.696Z,2.95
2019-03-03T08:55:24.680Z,3.08
2019-03-03T08:57:55.848Z,2.85
2019-03-03T09:00:24.118Z,2.77
2019-03-03T09:03:10.912Z,2.42
2019-03-03T09:05:57.450Z,2.52
2019-03-03T09:08:34.572Z,2.65
2019-03-03T09:11:02.919Z,2.45
2019-03-03T09:13:33.701Z,2.55
2019-03-03T09:16:04.787Z,2.50
2019-03-03T09:21:17.561Z,2.77
2019-03-03T09:24:02.549Z,2.70
2019-03-03T09:26:45.622Z,2.40
2019-03-03T09:29:13.913Z,3.10
2019-03-03T09:31:42.512Z,2.83
2019-03-03T09:34:19.696Z,3.52
2019-03-03T09:36:47.884Z,24.00
2019-03-03T09:39:19.999Z,3.47
2019-03-03T09:44:16.454Z,2.92
2019-03-03T09:47:01.708Z,2.58
2019-03-03T09:49:39.281Z,2.67
2019-03-03T09:52:24.568Z,3.02
2019-03-03T09:55:04.883Z,3.00
2019-03-03T09:57:48.265Z,2.20
2019-03-03T10:00:22.481Z,2.52
2019-03-03T10:02:54.745Z,3.02
2019-03-03T10:05:26.127Z,3.10
2019-03-03T10:08:10.760Z,2.60
2019-03-03T10:10:41.967Z,2.50
2019-03-03T10:13:12.783Z,2.83
2019-03-03T10:15:44.162Z,2.30
2019-03-03T10:18:12.462Z,2.67
2019-03-03T10:20:40.856Z,2.55
2019-03-03T10:23:09.068Z,2.52
2019-03-03T10:25:37.803Z,2.83
2019-03-03T10:28:05.964Z,2.62
2019-03-03T10:30:34.354Z,2.72
2019-03-03T10:33:07.159Z,2.15
2019-03-03T10:35:51.804Z,2.42
2019-03-03T10:38:22.574Z,2.58
2019-03-03T10:40:51.034Z,3.25
2019-03-03T10:43:28.742Z,2.70
2019-03-03T10:46:09.613Z,2.77
2019-03-03T10:48:38.213Z,2.50
2019-03-03T10:51:09.806Z,3.00
2019-03-03T10:56:18.413Z,3.67
2019-03-03T10:58:47.049Z,3.15
2019-03-03T11:01:15.330Z,3.37
2019-03-03T11:03:43.819Z,3.60
2019-03-03T11:06:27.212Z,2.50
2019-03-03T11:08:55.463Z,2.90
2019-03-03T11:11:38.934Z,2.42
2019-03-03T11:14:25.308Z,2.70
2019-03-03T11:17:10.455Z,2.58
2019-03-03T11:19:55.219Z,2.55
2019-03-03T11:22:41.314Z,2.90
2019-03-03T11:25:10.039Z,2.37
2019-03-03T11:27:44.215Z,3.00
2019-03-03T11:30:18.667Z,2.65
2019-03-03T11:32:49.469Z,2.70
2019-03-03T11:35:26.696Z,2.70
2019-03-03T11:37:57.407Z,2.95
2019-03-03T11:40:34.620Z,2.90
2019-03-03T11:43:08.593Z,2.77
2019-03-03T11:45:39.511Z,2.87
2019-03-03T11:48:10.063Z,2.85
2019-03-03T11:50:41.041Z,2.27
2019-03-03T11:53:12.813Z,2.42
2019-03-03T11:55:40.948Z,2.72
2019-03-03T11:58:13.915Z,2.45
2019-03-03T12:00:59.190Z,2.10
2019-03-03T12:03:36.615Z,2.65
2019-03-03T12:06:14.172Z,2.42
2019-03-03T12:09:11.128Z,2.40
2019-03-03T12:11:46.549Z,2.50
2019-03-03T12:17:53.155Z,1.90
2019-03-03T12:23:37.181Z,2.80
2019-03-03T12:26:15.032Z,2.47
2019-03-03T12:28:49.273Z,3.55
2019-03-03T12:31:35.268Z,2.75
2019-03-03T12:34:06.719Z,2.98
2019-03-03T12:36:54.187Z,2.35
2019-03-03T12:39:22.399Z,2.25
2019-03-03T12:42:10.630Z,2.27
2019-03-03T12:44:44.805Z,3.15
2019-03-03T12:47:16.216Z,2.50
2019-03-03T12:49:44.416Z,2.60
2019-03-03T12:52:20.671Z,3.02
2019-03-03T12:55:06.566Z,2.40
2019-03-03T12:57:36.671Z,2.42
2019-03-03T13:00:11.559Z,2.58
2019-03-03T13:03:01.271Z,2.40
2019-03-03T13:05:55.904Z,3.15
2019-03-03T13:08:59.654Z,3.75
2019-03-03T13:14:53.729Z,2.45
2019-03-03T13:17:48.264Z,2.80
2019-03-03T13:20:28.205Z,2.70
2019-03-03T13:23:00.568Z,3.10
2019-03-03T13:25:32.810Z,3.65
2019-03-03T13:28:10.435Z,3.00
2019-03-03T13:30:41.809Z,3.45
2019-03-03T13:33:13.032Z,3.27
2019-03-03T13:35:46.880Z,2.50
2019-03-03T13:38:17.900Z,3.08
2019-03-03T13:43:21.358Z,2.55
2019-03-03T13:45:47.677Z,3.00
2019-03-03T13:48:14.011Z,3.70
2019-03-03T13:50:40.321Z,6.15
2019-03-03T13:53:06.862Z,2.87
2019-03-03T13:55:33.174Z,3.05
2019-03-03T13:57:59.630Z,2.77
2019-03-03T14:00:25.978Z,2.60
2019-03-03T14:02:52.594Z,3.35
2019-03-03T14:05:20.687Z,2.30
2019-03-03T14:07:48.346Z,2.62
2019-03-03T14:10:16.976Z,3.15
2019-03-03T14:12:43.397Z,2.37
2019-03-03T14:15:14.897Z,2.80
2019-03-03T14:17:43.543Z,2.40
2019-03-03T14:20:22.452Z,2.35
2019-03-03T14:22:49.212Z,2.72
2019-03-03T14:25:18.217Z,2.47
2019-03-03T14:27:45.960Z,3.10
2019-03-03T14:30:17.400Z,2.42
2019-03-03T14:32:45.858Z,2.67
2019-03-03T14:35:13.788Z,2.67
2019-03-03T14:37:42.719Z,2.50
2019-03-03T14:40:13.638Z,2.65
2019-03-03T14:42:40.052Z,2.87
2019-03-03T14:45:09.247Z,3.05
2019-03-03T14:47:35.718Z,3.00
2019-03-03T14:50:05.361Z,3.58
2019-03-03T14:52:31.620Z,3.12
2019-03-03T14:54:58.909Z,3.35
2019-03-03T14:57:25.320Z,3.30
2019-03-03T14:59:53.203Z,3.45
2019-03-03T15:02:19.960Z,2.58
2019-03-03T15:04:46.028Z,2.83
2019-03-03T15:07:12.213Z,2.50
2019-03-03T15:09:39.136Z,3.20
2019-03-03T15:12:05.349Z,2.60
2019-03-03T15:14:33.309Z,2.30
2019-03-03T15:17:01.875Z,2.90
2019-03-03T15:19:29.485Z,2.60
2019-03-03T15:21:55.764Z,2.60
2019-03-03T15:24:21.895Z,2.45
2019-03-03T15:26:48.118Z,2.60
2019-03-03T15:29:17.662Z,2.72
2019-03-03T15:31:45.221Z,2.65
2019-03-03T15:34:11.347Z,2.92
2019-03-03T15:36:37.675Z,2.87
2019-03-03T15:39:05.260Z,2.92
2019-03-03T15:41:33.476Z,2.05
2019-03-03T15:43:59.639Z,2.75
2019-03-03T15:46:26.283Z,2.50
2019-03-03T15:48:52.585Z,2.77
2019-03-03T15:51:20.415Z,2.65
2019-03-03T15:53:51.125Z,2.25
2019-03-03T15:56:17.105Z,1.70
2019-03-03T15:58:55.253Z,2.35
2019-03-03T16:01:13.873Z,1.77
2019-03-03T16:03:40.275Z,2.52
2019-03-03T16:06:06.557Z,2.30
2019-03-03T16:08:32.902Z,2.20
2019-03-03T16:10:58.981Z,2.20
2019-03-03T16:13:28.817Z,2.40
2019-03-03T16:15:55.665Z,1.77
2019-03-03T16:18:21.862Z,1.82
2019-03-03T16:20:47.933Z,2.20
2019-03-03T16:23:14.234Z,2.58
2019-03-03T16:25:40.460Z,2.33
2019-03-03T16:28:07.345Z,2.35
2019-03-03T16:30:33.670Z,2.08
2019-03-03T16:33:00.717Z,2.17
2019-03-03T16:35:30.537Z,2.85
2019-03-03T16:37:56.690Z,2.30
2019-03-03T16:40:26.144Z,4.65
2019-03-03T16:42:52.260Z,25.02
2019-03-03T16:45:18.676Z,2.65
2019-03-03T16:47:44.971Z,2.45
2019-03-03T16:50:16.900Z,2.17
2019-03-03T16:52:44.995Z,2.47
2019-03-03T16:55:13.038Z,2.45
2019-03-03T16:57:41.282Z,2.02
2019-03-03T17:00:16.153Z,2.08
2019-03-03T17:02:42.446Z,2.58
2019-03-03T17:05:12.723Z,1.75
2019-03-03T17:07:39.416Z,1.80
2019-03-03T17:10:08.418Z,2.40
2019-03-03T17:12:34.478Z,2.22
2019-03-03T17:15:00.681Z,2.40
2019-03-03T17:17:27.214Z,2.17
2019-03-03T17:19:53.375Z,2.47
2019-03-03T17:22:19.462Z,2.40
2019-03-03T17:24:48.226Z,2.10
2019-03-03T17:27:14.304Z,2.12
2019-03-03T17:29:40.632Z,2.80
2019-03-03T17:32:06.760Z,2.55
2019-03-03T17:34:33.308Z,2.25
2019-03-03T17:37:01.187Z,2.00
2019-03-03T17:39:28.184Z,1.65
2019-03-03T17:41:56.007Z,2.00
2019-03-03T17:44:24.123Z,2.10
2019-03-03T17:46:50.671Z,2.20
2019-03-03T17:49:18.010Z,2.02
2019-03-03T17:51:44.063Z,2.72
2019-03-03T17:54:10.237Z,2.50
2019-03-03T17:56:39.374Z,2.20
2019-03-03T17:59:05.570Z,1.90
2019-03-03T18:01:34.267Z,2.35
2019-03-03T18:04:00.575Z,1.80
2019-03-03T18:06:38.408Z,2.12
2019-03-03T18:08:57.394Z,1.85
2019-03-03T18:11:26.287Z,2.10
2019-03-03T18:13:52.338Z,1.90
2019-03-03T18:16:18.517Z,1.77
2019-03-03T18:18:44.585Z,1.72
2019-03-03T18:21:10.766Z,1.90
2019-03-03T18:23:36.890Z,1.72
2019-03-03T18:26:05.042Z,1.60
2019-03-03T18:28:32.042Z,2.33
2019-03-03T18:31:00.954Z,1.82
2019-03-03T18:33:27.569Z,1.80
2019-03-03T18:35:53.776Z,1.90
2019-03-03T18:38:19.925Z,1.87
2019-03-03T18:40:46.046Z,1.40
2019-03-03T18:43:12.183Z,1.67
2019-03-03T18:45:39.193Z,1.35
2019-03-03T18:48:05.496Z,1.40
2019-03-03T18:50:32.241Z,2.10
2019-03-03T18:52:59.906Z,1.55
2019-03-03T18:55:26.475Z,1.90
2019-03-03T18:57:54.136Z,1.60
2019-03-03T19:00:25.222Z,2.33
2019-03-03T19:05:20.029Z,1.65
2019-03-03T19:07:47.134Z,2.00
2019-03-03T19:10:18.030Z,1.90
2019-03-03T19:12:44.337Z,1.80
2019-03-03T19:15:13.269Z,1.98
2019-03-03T19:17:39.498Z,1.80
2019-03-03T19:20:09.275Z,1.92
2019-03-03T19:22:35.480Z,1.90
2019-03-03T19:25:02.875Z,2.00
2019-03-03T19:27:29.038Z,2.02
2019-03-03T19:29:55.953Z,1.90
2019-03-03T19:32:22.692Z,1.92
2019-03-03T19:34:50.462Z,7.75
2019-03-03T19:37:16.558Z,25.70
2019-03-03T19:39:42.788Z,1.90
2019-03-03T19:42:08.958Z,1.60
2019-03-03T19:44:35.249Z,1.98
2019-03-03T19:47:01.318Z,1.52
2019-03-03T19:49:27.517Z,1.60
2019-03-03T19:51:53.836Z,2.00
2019-03-03T19:54:22.162Z,1.65
2019-03-03T19:56:49.427Z,1.92
2019-03-03T19:59:15.768Z,1.67
2019-03-03T20:01:41.951Z,2.00
2019-03-03T20:04:08.187Z,2.05
2019-03-03T20:06:34.530Z,2.05
2019-03-03T20:09:00.757Z,2.00
2019-03-03T20:11:29.042Z,2.20
2019-03-03T20:13:55.655Z,1.60
2019-03-03T20:16:23.022Z,1.90
2019-03-03T20:18:49.419Z,2.00
2019-03-03T20:21:16.090Z,1.70
2019-03-03T20:23:43.312Z,2.15
2019-03-03T20:26:09.545Z,2.87
2019-03-03T20:28:35.936Z,2.42
2019-03-03T20:31:02.514Z,1.70
2019-03-03T20:33:30.514Z,1.87
2019-03-03T20:35:56.622Z,2.30
2019-03-03T20:38:24.651Z,1.80
2019-03-03T20:40:50.834Z,1.90
2019-03-03T20:43:16.960Z,1.90
2019-03-03T20:45:43.253Z,2.17
2019-03-03T20:48:09.328Z,2.17
2019-03-03T20:50:35.514Z,2.15
2019-03-03T20:53:01.668Z,1.90
2019-03-03T20:55:30.494Z,2.02
2019-03-03T20:57:58.107Z,1.80
2019-03-03T21:00:25.769Z,1.95
2019-03-03T21:02:53.400Z,2.05
2019-03-03T21:05:19.904Z,1.77
2019-03-03T21:07:51.463Z,2.20
2019-03-03T21:10:20.990Z,1.75
2019-03-03T21:12:47.147Z,2.25
2019-03-03T21:15:13.644Z,1.98
2019-03-03T21:17:39.805Z,2.10
2019-03-03T21:20:09.310Z,1.70
2019-03-03T21:22:37.803Z,2.25
2019-03-03T21:25:09.597Z,1.90
2019-03-03T21:27:35.993Z,2.10
2019-03-03T21:30:08.059Z,2.42
2019-03-03T21:32:35.551Z,2.22
2019-03-03T21:35:01.697Z,1.80
2019-03-03T21:37:28.259Z,2.05
2019-03-03T21:39:54.398Z,1.90
2019-03-03T21:42:20.610Z,2.60
2019-03-03T21:44:46.800Z,2.25
2019-03-03T21:47:12.937Z,2.00
2019-03-03T21:49:41.116Z,2.10
2019-03-03T21:52:08.232Z,2.35
2019-03-03T21:54:34.386Z,2.10
2019-03-03T21:57:01.923Z,2.22
2019-03-03T21:59:28.740Z,2.00
2019-03-03T22:01:56.575Z,1.98
2019-03-03T22:04:22.805Z,2.12
2019-03-03T22:06:48.993Z,2.12
2019-03-03T22:09:15.157Z,1.98
2019-03-03T22:11:43.216Z,2.30
2019-03-03T22:14:09.310Z,2.00
2019-03-03T22:16:37.581Z,2.00
2019-03-03T22:19:03.647Z,1.90
2019-03-03T22:21:29.810Z,2.12
2019-03-03T22:23:55.920Z,2.72
2019-03-03T22:26:22.047Z,2.02
2019-03-03T22:28:48.236Z,2.40
2019-03-03T22:31:15.553Z,1.67
2019-03-03T22:33:42.311Z,2.17
2019-03-03T22:36:10.573Z,2.15
2019-03-03T22:38:36.935Z,2.25
2019-03-03T22:41:04.397Z,1.72
2019-03-03T22:43:31.214Z,2.00
2019-03-03T22:45:57.400Z,2.15
2019-03-03T22:48:23.805Z,1.92
2019-03-03T22:50:49.936Z,1.95
2019-03-03T22:53:16.064Z,2.35
2019-03-03T22:55:42.183Z,2.50
2019-03-03T22:58:08.778Z,2.08
2019-03-03T23:00:43.772Z,2.05
2019-03-03T23:03:18.639Z,1.90
2019-03-03T23:05:58.288Z,2.30
2019-03-03T23:08:47.033Z,2.08
2019-03-03T23:11:24.129Z,2.20
2019-03-03T23:14:09.464Z,1.90
2019-03-03T23:16:58.979Z,2.10
2019-03-03T23:19:53.161Z,1.82
2019-03-03T23:22:26.450Z,1.98
2019-03-03T23:25:11.496Z,2.42
2019-03-03T23:27:37.547Z,2.12
2019-03-03T23:30:06.150Z,1.82
2019-03-03T23:32:32.674Z,2.08
2019-03-03T23:35:01.437Z,2.00
2019-03-03T23:37:28.517Z,2.55
2019-03-03T23:39:54.703Z,2.30
2019-03-03T23:42:20.821Z,2.30
2019-03-03T23:44:46.959Z,2.37
2019-03-03T23:47:13.063Z,2.25
2019-03-03T23:49:39.260Z,2.42
2019-03-03T23:52:05.491Z,2.50
2019-03-03T23:54:32.789Z,2.35
2019-03-03T23:56:58.973Z,2.75
2019-03-03T23:59:25.296Z,2.45
